This is the latest recevied weather packets stored in our database for station/object EA4BCR. If no packets are shown the sender has not sent any weather packets the latest 10 day(s).
| Time | Temp. | Humidity | Pressure | Rain* | Wind** | Luminosity | Snow |
|---|---|---|---|---|---|---|---|
| 1778013054 | 13.33° C | 50% | 1012.3 hPa | - | - | - | - |
| 1778012454 | 13.89° C | 47% | 1011.9 hPa | - | - | - | - |
| 1778011854 | 15° C | 46% | 1011.5 hPa | - | - | - | - |
| 1778011254 | 15° C | 44% | 1011.4 hPa | - | - | - | - |
| 1778010654 | 15° C | 45% | 1011.3 hPa | - | - | - | - |
| 1778010054 | 15° C | 45% | 1011.1 hPa | - | - | - | - |
| 1778009454 | 15° C | 45% | 1010.8 hPa | - | - | - | - |
| 1778008854 | 15.56° C | 44% | 1010.5 hPa | - | - | - | - |
| 1778008254 | 16.11° C | 42% | 1010.3 hPa | - | - | - | - |
| 1778007654 | 16.11° C | 41% | 1010.2 hPa | - | - | - | - |
| 1778007054 | 16.67° C | 40% | 1009.9 hPa | - | - | - | - |
| 1778006454 | 17.22° C | 38% | 1009.8 hPa | - | - | - | - |
| 1778005854 | 17.22° C | 37% | 1009.8 hPa | - | - | - | - |
| 1778005254 | 17.22° C | 35% | 1009.6 hPa | - | - | - | - |
| 1778004654 | 17.22° C | 35% | 1009.6 hPa | - | - | - | - |
| 1778004057 | 17.22° C | 36% | 1009.4 hPa | - | - | - | - |
| 1778003454 | 17.22° C | 34% | 1009.3 hPa | - | - | - | - |
| 1778002854 | 18.33° C | 33% | 1009 hPa | - | - | - | - |
| 1778002254 | 18.33° C | 33% | 1009 hPa | - | - | - | - |
| 1778001654 | 17.78° C | 34% | 1009.2 hPa | - | - | - | - |
| 1778001054 | 18.89° C | 33% | 1008.8 hPa | - | - | - | - |
| 1778000455 | 18.33° C | 35% | 1008.9 hPa | - | - | - | - |
| 1777999854 | 17.78° C | 36% | 1009.1 hPa | - | - | - | - |
| 1777999254 | 18.33° C | 34% | 1008.9 hPa | - | - | - | - |
| 1777998654 | 18.89° C | 34% | 1008.8 hPa | - | - | - | - |
* Rain since midnight (hover to see other rain measurements)
** Current wind speed in m/s (hover to see current wind gust speed)